Rankin, Michigan
Current Conditions -  °F | °C
As of 10:53 AM on Thursday 29 Jan 2015 (Local Time) from KFNT Reporting Station
Overcast Overcast  
Wind Chill: 26°   Ceiling: 3400
Heat Index: 33°   Visibility: 10mi
Dew Point: 23°   Wind: 8mph
Humidity: 66%   Direction: 200°SSW
Pressure: 29.75"   Gusts: NA
Location:  42.9382°N, 83.8244°W
Report Text: KFNT 291553Z 20007KT 10SM OVC034 01/M05 A2975 RMK AO2 SLP083 T00061050
Loading
Personal Weather Stations






























Interactive Weather Map New forecast layout! Learn more

10-Day Weather Forecast

Advertisements
Track Severe Weather on mobile